sensor_id;sensor_type;location;lat;lon;timestamp;P1;durP1;ratioP1;P2;durP2;ratioP2
47894;SDS011;33653;52.302;8.134;2023-01-29T00:02:23;14.00;;;7.23;;
47894;SDS011;33653;52.302;8.134;2023-01-29T00:04:51;16.50;;;8.83;;
47894;SDS011;33653;52.302;8.134;2023-01-29T00:07:23;13.70;;;7.93;;
47894;SDS011;33653;52.302;8.134;2023-01-29T00:09:51;11.13;;;7.00;;
47894;SDS011;33653;52.302;8.134;2023-01-29T00:12:19;9.80;;;7.13;;
47894;SDS011;33653;52.302;8.134;2023-01-29T00:14:47;15.83;;;9.03;;
47894;SDS011;33653;52.302;8.134;2023-01-29T00:17:15;10.43;;;5.30;;
47894;SDS011;33653;52.302;8.134;2023-01-29T00:19:43;9.83;;;6.67;;
47894;SDS011;33653;52.302;8.134;2023-01-29T00:22:10;11.73;;;7.00;;
47894;SDS011;33653;52.302;8.134;2023-01-29T00:24:38;12.40;;;8.10;;
47894;SDS011;33653;52.302;8.134;2023-01-29T00:27:06;17.80;;;8.37;;
47894;SDS011;33653;52.302;8.134;2023-01-29T00:29:34;12.40;;;7.13;;
47894;SDS011;33653;52.302;8.134;2023-01-29T00:32:02;14.17;;;8.30;;
47894;SDS011;33653;52.302;8.134;2023-01-29T00:34:30;11.30;;;7.10;;
47894;SDS011;33653;52.302;8.134;2023-01-29T00:36:58;13.33;;;7.43;;
47894;SDS011;33653;52.302;8.134;2023-01-29T00:39:30;10.93;;;7.50;;
47894;SDS011;33653;52.302;8.134;2023-01-29T00:42:14;10.03;;;7.17;;
47894;SDS011;33653;52.302;8.134;2023-01-29T00:45:00;9.90;;;5.83;;
47894;SDS011;33653;52.302;8.134;2023-01-29T00:47:28;13.77;;;7.93;;
47894;SDS011;33653;52.302;8.134;2023-01-29T00:50:00;10.55;;;7.78;;
47894;SDS011;33653;52.302;8.134;2023-01-29T00:52:33;12.25;;;7.70;;
47894;SDS011;33653;52.302;8.134;2023-01-29T00:55:03;9.43;;;7.37;;
47894;SDS011;33653;52.302;8.134;2023-01-29T00:57:33;10.53;;;7.87;;
47894;SDS011;33653;52.302;8.134;2023-01-29T01:00:01;11.37;;;7.20;;
47894;SDS011;33653;52.302;8.134;2023-01-29T01:02:31;14.00;;;7.40;;
47894;SDS011;33653;52.302;8.134;2023-01-29T01:05:18;15.33;;;8.43;;
47894;SDS011;33653;52.302;8.134;2023-01-29T01:07:47;13.00;;;7.60;;
47894;SDS011;33653;52.302;8.134;2023-01-29T01:10:21;11.40;;;7.23;;
47894;SDS011;33653;52.302;8.134;2023-01-29T01:13:01;13.13;;;7.90;;
47894;SDS011;33653;52.302;8.134;2023-01-29T01:15:36;12.27;;;6.83;;
47894;SDS011;33653;52.302;8.134;2023-01-29T01:18:05;10.13;;;6.87;;
47894;SDS011;33653;52.302;8.134;2023-01-29T01:20:34;12.27;;;6.57;;
47894;SDS011;33653;52.302;8.134;2023-01-29T01:23:02;11.37;;;7.57;;
47894;SDS011;33653;52.302;8.134;2023-01-29T01:25:31;17.23;;;9.47;;
47894;SDS011;33653;52.302;8.134;2023-01-29T01:28:00;9.63;;;7.23;;
47894;SDS011;33653;52.302;8.134;2023-01-29T01:30:28;7.17;;;5.60;;
47894;SDS011;33653;52.302;8.134;2023-01-29T01:32:56;11.13;;;7.57;;
47894;SDS011;33653;52.302;8.134;2023-01-29T01:35:24;12.20;;;7.53;;
47894;SDS011;33653;52.302;8.134;2023-01-29T01:37:52;13.97;;;8.23;;
47894;SDS011;33653;52.302;8.134;2023-01-29T01:40:20;12.00;;;8.23;;
47894;SDS011;33653;52.302;8.134;2023-01-29T01:42:50;9.83;;;6.67;;
47894;SDS011;33653;52.302;8.134;2023-01-29T01:53:11;9.67;;;7.13;;
47894;SDS011;33653;52.302;8.134;2023-01-29T01:55:44;15.90;;;7.30;;
47894;SDS011;33653;52.302;8.134;2023-01-29T01:58:20;10.70;;;6.33;;
47894;SDS011;33653;52.302;8.134;2023-01-29T02:00:57;9.73;;;6.30;;
47894;SDS011;33653;52.302;8.134;2023-01-29T02:03:25;12.53;;;7.73;;
47894;SDS011;33653;52.302;8.134;2023-01-29T02:06:14;11.23;;;7.23;;
47894;SDS011;33653;52.302;8.134;2023-01-29T02:09:01;9.47;;;6.87;;
47894;SDS011;33653;52.302;8.134;2023-01-29T02:11:54;11.00;;;6.43;;
47894;SDS011;33653;52.302;8.134;2023-01-29T02:14:22;11.70;;;9.23;;
47894;SDS011;33653;52.302;8.134;2023-01-29T02:16:51;19.43;;;8.10;;
47894;SDS011;33653;52.302;8.134;2023-01-29T02:19:31;14.77;;;8.90;;
47894;SDS011;33653;52.302;8.134;2023-01-29T02:25:39;15.50;;;7.80;;
47894;SDS011;33653;52.302;8.134;2023-01-29T02:28:15;10.40;;;6.80;;
47894;SDS011;33653;52.302;8.134;2023-01-29T02:33:39;12.77;;;7.30;;
47894;SDS011;33653;52.302;8.134;2023-01-29T02:36:46;11.67;;;7.63;;
47894;SDS011;33653;52.302;8.134;2023-01-29T02:39:24;12.57;;;7.57;;
47894;SDS011;33653;52.302;8.134;2023-01-29T02:42:37;17.23;;;8.88;;
47894;SDS011;33653;52.302;8.134;2023-01-29T02:48:25;10.40;;;7.03;;
47894;SDS011;33653;52.302;8.134;2023-01-29T02:51:09;10.50;;;6.55;;
47894;SDS011;33653;52.302;8.134;2023-01-29T02:53:47;10.70;;;6.57;;
47894;SDS011;33653;52.302;8.134;2023-01-29T02:56:23;15.40;;;7.83;;
47894;SDS011;33653;52.302;8.134;2023-01-29T02:59:02;11.40;;;6.33;;
47894;SDS011;33653;52.302;8.134;2023-01-29T03:01:36;14.10;;;9.00;;
47894;SDS011;33653;52.302;8.134;2023-01-29T03:04:20;12.50;;;7.03;;
47894;SDS011;33653;52.302;8.134;2023-01-29T03:06:56;20.80;;;9.10;;
47894;SDS011;33653;52.302;8.134;2023-01-29T03:09:33;12.83;;;6.90;;
47894;SDS011;33653;52.302;8.134;2023-01-29T03:12:13;14.23;;;8.40;;
47894;SDS011;33653;52.302;8.134;2023-01-29T03:14:55;11.70;;;6.23;;
47894;SDS011;33653;52.302;8.134;2023-01-29T03:17:54;14.20;;;8.47;;
47894;SDS011;33653;52.302;8.134;2023-01-29T03:20:46;14.97;;;7.67;;
47894;SDS011;33653;52.302;8.134;2023-01-29T03:23:23;14.63;;;6.77;;
47894;SDS011;33653;52.302;8.134;2023-01-29T03:26:17;17.77;;;6.70;;
47894;SDS011;33653;52.302;8.134;2023-01-29T03:29:07;15.10;;;7.23;;
47894;SDS011;33653;52.302;8.134;2023-01-29T03:31:54;13.23;;;6.90;;
47894;SDS011;33653;52.302;8.134;2023-01-29T03:34:38;18.77;;;8.00;;
47894;SDS011;33653;52.302;8.134;2023-01-29T03:37:21;9.93;;;6.63;;
47894;SDS011;33653;52.302;8.134;2023-01-29T03:40:04;10.93;;;6.17;;
47894;SDS011;33653;52.302;8.134;2023-01-29T03:42:41;13.37;;;7.90;;
47894;SDS011;33653;52.302;8.134;2023-01-29T03:48:19;9.57;;;5.88;;
47894;SDS011;33653;52.302;8.134;2023-01-29T03:51:17;12.70;;;6.70;;
47894;SDS011;33653;52.302;8.134;2023-01-29T03:54:15;13.23;;;7.78;;
47894;SDS011;33653;52.302;8.134;2023-01-29T03:57:01;10.47;;;6.10;;
47894;SDS011;33653;52.302;8.134;2023-01-29T03:59:49;12.67;;;7.90;;
47894;SDS011;33653;52.302;8.134;2023-01-29T04:02:46;9.17;;;6.40;;
47894;SDS011;33653;52.302;8.134;2023-01-29T04:05:46;13.07;;;6.33;;
47894;SDS011;33653;52.302;8.134;2023-01-29T04:09:02;6.70;;;5.27;;
47894;SDS011;33653;52.302;8.134;2023-01-29T04:11:43;9.13;;;6.23;;
47894;SDS011;33653;52.302;8.134;2023-01-29T04:14:16;8.83;;;5.27;;
47894;SDS011;33653;52.302;8.134;2023-01-29T04:16:47;10.40;;;7.33;;
47894;SDS011;33653;52.302;8.134;2023-01-29T04:19:33;12.17;;;7.50;;
47894;SDS011;33653;52.302;8.134;2023-01-29T04:22:04;12.53;;;7.60;;
47894;SDS011;33653;52.302;8.134;2023-01-29T04:24:43;10.40;;;6.80;;
47894;SDS011;33653;52.302;8.134;2023-01-29T04:27:34;15.43;;;7.20;;
47894;SDS011;33653;52.302;8.134;2023-01-29T04:30:26;10.60;;;7.80;;
47894;SDS011;33653;52.302;8.134;2023-01-29T04:41:21;13.17;;;8.30;;
47894;SDS011;33653;52.302;8.134;2023-01-29T04:51:46;14.20;;;8.10;;
47894;SDS011;33653;52.302;8.134;2023-01-29T04:57:53;9.63;;;6.17;;
47894;SDS011;33653;52.302;8.134;2023-01-29T05:01:00;11.90;;;8.70;;
47894;SDS011;33653;52.302;8.134;2023-01-29T05:03:32;11.33;;;6.20;;
47894;SDS011;33653;52.302;8.134;2023-01-29T05:06:02;12.00;;;6.33;;
47894;SDS011;33653;52.302;8.134;2023-01-29T05:08:31;16.70;;;7.97;;
47894;SDS011;33653;52.302;8.134;2023-01-29T05:10:59;13.23;;;7.53;;
47894;SDS011;33653;52.302;8.134;2023-01-29T05:13:27;16.57;;;8.37;;
47894;SDS011;33653;52.302;8.134;2023-01-29T05:16:00;17.47;;;8.70;;
47894;SDS011;33653;52.302;8.134;2023-01-29T05:18:51;11.50;;;7.63;;
47894;SDS011;33653;52.302;8.134;2023-01-29T05:21:19;15.93;;;8.07;;
47894;SDS011;33653;52.302;8.134;2023-01-29T05:26:37;17.15;;;9.25;;
47894;SDS011;33653;52.302;8.134;2023-01-29T05:29:23;12.63;;;7.33;;
47894;SDS011;33653;52.302;8.134;2023-01-29T05:31:51;15.93;;;7.83;;
47894;SDS011;33653;52.302;8.134;2023-01-29T05:34:19;15.53;;;9.53;;
47894;SDS011;33653;52.302;8.134;2023-01-29T05:36:47;13.17;;;6.93;;
47894;SDS011;33653;52.302;8.134;2023-01-29T05:39:15;13.27;;;8.80;;
47894;SDS011;33653;52.302;8.134;2023-01-29T05:41:43;14.67;;;7.77;;
47894;SDS011;33653;52.302;8.134;2023-01-29T05:44:11;14.83;;;8.37;;
47894;SDS011;33653;52.302;8.134;2023-01-29T05:46:39;16.63;;;8.40;;
47894;SDS011;33653;52.302;8.134;2023-01-29T05:49:07;12.57;;;7.40;;
47894;SDS011;33653;52.302;8.134;2023-01-29T05:51:35;10.70;;;7.47;;
47894;SDS011;33653;52.302;8.134;2023-01-29T05:54:03;12.77;;;7.63;;
47894;SDS011;33653;52.302;8.134;2023-01-29T05:56:31;16.33;;;7.60;;
47894;SDS011;33653;52.302;8.134;2023-01-29T05:58:59;15.33;;;10.00;;
47894;SDS011;33653;52.302;8.134;2023-01-29T06:01:27;17.80;;;9.10;;
47894;SDS011;33653;52.302;8.134;2023-01-29T06:03:57;13.60;;;7.27;;
47894;SDS011;33653;52.302;8.134;2023-01-29T06:06:25;14.47;;;8.73;;
47894;SDS011;33653;52.302;8.134;2023-01-29T06:08:53;14.67;;;8.17;;
47894;SDS011;33653;52.302;8.134;2023-01-29T06:11:23;15.23;;;9.00;;
47894;SDS011;33653;52.302;8.134;2023-01-29T06:13:51;11.10;;;6.97;;
47894;SDS011;33653;52.302;8.134;2023-01-29T06:16:18;17.90;;;9.57;;
47894;SDS011;33653;52.302;8.134;2023-01-29T06:18:46;18.07;;;9.80;;
47894;SDS011;33653;52.302;8.134;2023-01-29T06:21:14;19.23;;;9.67;;
47894;SDS011;33653;52.302;8.134;2023-01-29T06:23:45;12.73;;;7.72;;
47894;SDS011;33653;52.302;8.134;2023-01-29T06:26:14;15.50;;;8.43;;
47894;SDS011;33653;52.302;8.134;2023-01-29T06:34:18;17.67;;;7.93;;
47894;SDS011;33653;52.302;8.134;2023-01-29T06:36:47;16.53;;;7.80;;
47894;SDS011;33653;52.302;8.134;2023-01-29T06:39:15;15.93;;;9.03;;
47894;SDS011;33653;52.302;8.134;2023-01-29T06:47:14;22.10;;;10.17;;
47894;SDS011;33653;52.302;8.134;2023-01-29T06:49:42;12.67;;;9.77;;
47894;SDS011;33653;52.302;8.134;2023-01-29T06:52:10;16.87;;;8.73;;
47894;SDS011;33653;52.302;8.134;2023-01-29T06:54:38;15.17;;;8.60;;
47894;SDS011;33653;52.302;8.134;2023-01-29T06:57:06;11.23;;;8.40;;
47894;SDS011;33653;52.302;8.134;2023-01-29T06:59:34;14.43;;;7.60;;
47894;SDS011;33653;52.302;8.134;2023-01-29T07:02:02;14.30;;;8.17;;
47894;SDS011;33653;52.302;8.134;2023-01-29T07:04:30;12.53;;;9.53;;
47894;SDS011;33653;52.302;8.134;2023-01-29T07:06:58;16.97;;;8.30;;
47894;SDS011;33653;52.302;8.134;2023-01-29T07:09:26;13.80;;;8.53;;
47894;SDS011;33653;52.302;8.134;2023-01-29T07:11:54;17.27;;;10.53;;
47894;SDS011;33653;52.302;8.134;2023-01-29T07:14:22;14.00;;;8.57;;
47894;SDS011;33653;52.302;8.134;2023-01-29T07:16:49;15.77;;;8.77;;
47894;SDS011;33653;52.302;8.134;2023-01-29T07:19:17;14.37;;;8.10;;
47894;SDS011;33653;52.302;8.134;2023-01-29T07:21:45;10.57;;;6.37;;
47894;SDS011;33653;52.302;8.134;2023-01-29T07:24:13;15.27;;;9.40;;
47894;SDS011;33653;52.302;8.134;2023-01-29T07:26:42;18.07;;;8.73;;
47894;SDS011;33653;52.302;8.134;2023-01-29T07:29:09;11.63;;;7.43;;
47894;SDS011;33653;52.302;8.134;2023-01-29T07:31:37;15.20;;;8.60;;
47894;SDS011;33653;52.302;8.134;2023-01-29T07:34:05;11.67;;;7.17;;
47894;SDS011;33653;52.302;8.134;2023-01-29T07:36:33;9.80;;;6.90;;
47894;SDS011;33653;52.302;8.134;2023-01-29T07:39:02;14.93;;;10.00;;
47894;SDS011;33653;52.302;8.134;2023-01-29T07:41:30;16.07;;;10.97;;
47894;SDS011;33653;52.302;8.134;2023-01-29T07:43:58;13.53;;;8.30;;
47894;SDS011;33653;52.302;8.134;2023-01-29T07:46:26;15.77;;;8.00;;
47894;SDS011;33653;52.302;8.134;2023-01-29T07:48:56;9.47;;;7.50;;
47894;SDS011;33653;52.302;8.134;2023-01-29T07:51:26;12.82;;;6.60;;
47894;SDS011;33653;52.302;8.134;2023-01-29T07:53:57;10.17;;;7.53;;
47894;SDS011;33653;52.302;8.134;2023-01-29T07:56:26;13.70;;;5.93;;
47894;SDS011;33653;52.302;8.134;2023-01-29T07:59:00;10.73;;;6.73;;
47894;SDS011;33653;52.302;8.134;2023-01-29T08:07:19;10.90;;;7.00;;
47894;SDS011;33653;52.302;8.134;2023-01-29T08:09:51;15.87;;;7.87;;
47894;SDS011;33653;52.302;8.134;2023-01-29T08:15:12;14.10;;;7.57;;
47894;SDS011;33653;52.302;8.134;2023-01-29T08:17:42;14.40;;;8.10;;
47894;SDS011;33653;52.302;8.134;2023-01-29T08:20:24;12.85;;;6.88;;
47894;SDS011;33653;52.302;8.134;2023-01-29T08:22:59;9.77;;;6.80;;
47894;SDS011;33653;52.302;8.134;2023-01-29T08:25:33;14.30;;;9.37;;
47894;SDS011;33653;52.302;8.134;2023-01-29T08:28:02;11.10;;;6.85;;
47894;SDS011;33653;52.302;8.134;2023-01-29T08:30:34;13.82;;;7.35;;
47894;SDS011;33653;52.302;8.134;2023-01-29T08:33:02;12.38;;;6.82;;
47894;SDS011;33653;52.302;8.134;2023-01-29T08:35:31;13.13;;;7.77;;
47894;SDS011;33653;52.302;8.134;2023-01-29T08:38:00;15.95;;;9.27;;
47894;SDS011;33653;52.302;8.134;2023-01-29T08:40:42;15.83;;;8.27;;
47894;SDS011;33653;52.302;8.134;2023-01-29T08:43:10;13.25;;;7.95;;
47894;SDS011;33653;52.302;8.134;2023-01-29T08:45:40;12.80;;;6.65;;
47894;SDS011;33653;52.302;8.134;2023-01-29T08:48:12;16.20;;;7.47;;
47894;SDS011;33653;52.302;8.134;2023-01-29T08:50:41;12.43;;;8.65;;
47894;SDS011;33653;52.302;8.134;2023-01-29T08:53:09;11.10;;;6.53;;
47894;SDS011;33653;52.302;8.134;2023-01-29T08:55:40;13.87;;;7.97;;
47894;SDS011;33653;52.302;8.134;2023-01-29T08:58:10;5.20;;;3.85;;
47894;SDS011;33653;52.302;8.134;2023-01-29T09:00:38;21.10;;;7.87;;
47894;SDS011;33653;52.302;8.134;2023-01-29T09:03:11;18.37;;;8.53;;
47894;SDS011;33653;52.302;8.134;2023-01-29T09:05:44;11.50;;;7.70;;
47894;SDS011;33653;52.302;8.134;2023-01-29T09:11:05;14.20;;;6.70;;
47894;SDS011;33653;52.302;8.134;2023-01-29T09:13:34;15.05;;;7.95;;
47894;SDS011;33653;52.302;8.134;2023-01-29T09:16:08;13.10;;;7.53;;
47894;SDS011;33653;52.302;8.134;2023-01-29T09:18:38;13.27;;;7.45;;
47894;SDS011;33653;52.302;8.134;2023-01-29T09:21:09;13.10;;;7.57;;
47894;SDS011;33653;52.302;8.134;2023-01-29T09:23:37;15.13;;;8.63;;
47894;SDS011;33653;52.302;8.134;2023-01-29T09:28:58;15.00;;;9.70;;
47894;SDS011;33653;52.302;8.134;2023-01-29T09:31:30;12.57;;;7.50;;
47894;SDS011;33653;52.302;8.134;2023-01-29T09:34:00;14.90;;;8.18;;
47894;SDS011;33653;52.302;8.134;2023-01-29T09:39:04;16.48;;;7.93;;
47894;SDS011;33653;52.302;8.134;2023-01-29T09:47:51;19.05;;;10.25;;
47894;SDS011;33653;52.302;8.134;2023-01-29T09:50:23;17.02;;;9.90;;
47894;SDS011;33653;52.302;8.134;2023-01-29T09:55:58;18.00;;;8.82;;
47894;SDS011;33653;52.302;8.134;2023-01-29T09:58:31;15.40;;;8.63;;
47894;SDS011;33653;52.302;8.134;2023-01-29T10:01:13;19.73;;;10.18;;
47894;SDS011;33653;52.302;8.134;2023-01-29T10:10:06;19.30;;;8.52;;
47894;SDS011;33653;52.302;8.134;2023-01-29T10:13:01;16.70;;;8.40;;
47894;SDS011;33653;52.302;8.134;2023-01-29T10:15:48;19.67;;;10.00;;
47894;SDS011;33653;52.302;8.134;2023-01-29T10:21:45;17.40;;;10.20;;
47894;SDS011;33653;52.302;8.134;2023-01-29T10:27:40;14.68;;;8.70;;
47894;SDS011;33653;52.302;8.134;2023-01-29T10:30:19;10.32;;;6.30;;
47894;SDS011;33653;52.302;8.134;2023-01-29T10:33:04;14.27;;;8.52;;
47894;SDS011;33653;52.302;8.134;2023-01-29T10:35:40;14.63;;;8.32;;
47894;SDS011;33653;52.302;8.134;2023-01-29T10:38:30;13.25;;;7.80;;
47894;SDS011;33653;52.302;8.134;2023-01-29T10:46:14;13.90;;;7.60;;
47894;SDS011;33653;52.302;8.134;2023-01-29T10:52:00;19.58;;;9.35;;
47894;SDS011;33653;52.302;8.134;2023-01-29T10:54:58;15.50;;;10.00;;
47894;SDS011;33653;52.302;8.134;2023-01-29T11:00:41;14.32;;;7.63;;
47894;SDS011;33653;52.302;8.134;2023-01-29T11:03:13;11.70;;;6.68;;
47894;SDS011;33653;52.302;8.134;2023-01-29T11:11:32;17.42;;;9.02;;
47894;SDS011;33653;52.302;8.134;2023-01-29T11:14:09;15.57;;;8.35;;
47894;SDS011;33653;52.302;8.134;2023-01-29T11:16:44;14.70;;;7.18;;
47894;SDS011;33653;52.302;8.134;2023-01-29T11:19:14;11.02;;;6.50;;
47894;SDS011;33653;52.302;8.134;2023-01-29T11:21:55;13.82;;;8.05;;
47894;SDS011;33653;52.302;8.134;2023-01-29T11:24:25;14.20;;;8.43;;
47894;SDS011;33653;52.302;8.134;2023-01-29T11:26:54;16.88;;;9.35;;
47894;SDS011;33653;52.302;8.134;2023-01-29T11:31:59;10.32;;;7.60;;
47894;SDS011;33653;52.302;8.134;2023-01-29T11:34:33;15.65;;;9.23;;
47894;SDS011;33653;52.302;8.134;2023-01-29T11:37:02;15.23;;;8.85;;
47894;SDS011;33653;52.302;8.134;2023-01-29T11:39:31;14.88;;;8.68;;
47894;SDS011;33653;52.302;8.134;2023-01-29T11:42:00;17.15;;;9.15;;
47894;SDS011;33653;52.302;8.134;2023-01-29T11:49:51;13.50;;;8.00;;
47894;SDS011;33653;52.302;8.134;2023-01-29T11:52:26;20.65;;;9.50;;
47894;SDS011;33653;52.302;8.134;2023-01-29T11:55:17;13.10;;;7.07;;
47894;SDS011;33653;52.302;8.134;2023-01-29T11:57:49;11.90;;;7.38;;
47894;SDS011;33653;52.302;8.134;2023-01-29T12:00:33;16.65;;;9.23;;
47894;SDS011;33653;52.302;8.134;2023-01-29T12:03:06;16.00;;;9.02;;
47894;SDS011;33653;52.302;8.134;2023-01-29T12:05:51;12.02;;;7.70;;
47894;SDS011;33653;52.302;8.134;2023-01-29T12:08:24;9.95;;;6.88;;
47894;SDS011;33653;52.302;8.134;2023-01-29T12:11:11;15.68;;;8.65;;
47894;SDS011;33653;52.302;8.134;2023-01-29T12:13:42;15.02;;;8.63;;
47894;SDS011;33653;52.302;8.134;2023-01-29T12:22:22;14.75;;;7.65;;
47894;SDS011;33653;52.302;8.134;2023-01-29T12:25:23;13.30;;;6.45;;
47894;SDS011;33653;52.302;8.134;2023-01-29T12:31:28;13.52;;;8.23;;
47894;SDS011;33653;52.302;8.134;2023-01-29T12:37:57;12.93;;;8.88;;
47894;SDS011;33653;52.302;8.134;2023-01-29T12:40:54;17.30;;;9.18;;
47894;SDS011;33653;52.302;8.134;2023-01-29T12:44:02;15.35;;;7.82;;
47894;SDS011;33653;52.302;8.134;2023-01-29T12:46:40;16.60;;;9.32;;
47894;SDS011;33653;52.302;8.134;2023-01-29T12:49:22;18.55;;;8.43;;
47894;SDS011;33653;52.302;8.134;2023-01-29T12:54:35;16.65;;;10.00;;
47894;SDS011;33653;52.302;8.134;2023-01-29T13:00:05;17.60;;;8.05;;
47894;SDS011;33653;52.302;8.134;2023-01-29T13:02:51;15.77;;;7.18;;
47894;SDS011;33653;52.302;8.134;2023-01-29T13:05:54;16.48;;;8.52;;
47894;SDS011;33653;52.302;8.134;2023-01-29T13:08:46;13.35;;;8.25;;
47894;SDS011;33653;52.302;8.134;2023-01-29T13:11:31;15.73;;;8.43;;
47894;SDS011;33653;52.302;8.134;2023-01-29T13:23:12;17.60;;;8.90;;
47894;SDS011;33653;52.302;8.134;2023-01-29T13:26:06;16.70;;;8.55;;
47894;SDS011;33653;52.302;8.134;2023-01-29T13:28:39;17.48;;;9.77;;
47894;SDS011;33653;52.302;8.134;2023-01-29T13:37:11;17.15;;;8.95;;
47894;SDS011;33653;52.302;8.134;2023-01-29T13:46:22;11.02;;;6.75;;
47894;SDS011;33653;52.302;8.134;2023-01-29T13:48:50;12.20;;;5.93;;
47894;SDS011;33653;52.302;8.134;2023-01-29T13:51:21;17.85;;;10.43;;
47894;SDS011;33653;52.302;8.134;2023-01-29T13:53:59;20.30;;;10.60;;
47894;SDS011;33653;52.302;8.134;2023-01-29T13:56:41;20.48;;;9.32;;
47894;SDS011;33653;52.302;8.134;2023-01-29T14:02:23;17.83;;;9.88;;
47894;SDS011;33653;52.302;8.134;2023-01-29T14:07:59;11.25;;;7.68;;
47894;SDS011;33653;52.302;8.134;2023-01-29T14:10:51;17.13;;;9.85;;
47894;SDS011;33653;52.302;8.134;2023-01-29T14:13:51;18.55;;;9.85;;
47894;SDS011;33653;52.302;8.134;2023-01-29T14:18:47;13.55;;;9.15;;
47894;SDS011;33653;52.302;8.134;2023-01-29T14:21:29;12.35;;;7.45;;
47894;SDS011;33653;52.302;8.134;2023-01-29T14:30:14;20.00;;;10.90;;
47894;SDS011;33653;52.302;8.134;2023-01-29T14:35:49;22.52;;;10.00;;
47894;SDS011;33653;52.302;8.134;2023-01-29T14:38:17;18.90;;;10.00;;
47894;SDS011;33653;52.302;8.134;2023-01-29T14:40:45;14.48;;;9.30;;
47894;SDS011;33653;52.302;8.134;2023-01-29T14:43:20;16.02;;;10.13;;
47894;SDS011;33653;52.302;8.134;2023-01-29T14:49:40;21.88;;;12.07;;
47894;SDS011;33653;52.302;8.134;2023-01-29T14:52:52;16.08;;;10.77;;
47894;SDS011;33653;52.302;8.134;2023-01-29T14:58:26;22.92;;;11.75;;
47894;SDS011;33653;52.302;8.134;2023-01-29T15:01:30;17.10;;;10.75;;
47894;SDS011;33653;52.302;8.134;2023-01-29T15:06:43;12.80;;;7.05;;
47894;SDS011;33653;52.302;8.134;2023-01-29T15:12:16;20.48;;;10.35;;
47894;SDS011;33653;52.302;8.134;2023-01-29T15:15:04;19.38;;;11.88;;
47894;SDS011;33653;52.302;8.134;2023-01-29T15:22:56;22.05;;;11.05;;
47894;SDS011;33653;52.302;8.134;2023-01-29T15:25:24;23.73;;;11.93;;
47894;SDS011;33653;52.302;8.134;2023-01-29T15:27:59;19.13;;;12.05;;
47894;SDS011;33653;52.302;8.134;2023-01-29T15:30:33;28.95;;;12.35;;
47894;SDS011;33653;52.302;8.134;2023-01-29T15:33:02;30.92;;;11.80;;
47894;SDS011;33653;52.302;8.134;2023-01-29T15:35:34;23.27;;;12.02;;
47894;SDS011;33653;52.302;8.134;2023-01-29T15:38:16;23.73;;;12.40;;
47894;SDS011;33653;52.302;8.134;2023-01-29T15:41:03;20.35;;;11.60;;
47894;SDS011;33653;52.302;8.134;2023-01-29T15:43:44;19.67;;;10.65;;
47894;SDS011;33653;52.302;8.134;2023-01-29T15:46:23;23.50;;;11.85;;
47894;SDS011;33653;52.302;8.134;2023-01-29T15:49:07;21.20;;;12.10;;
47894;SDS011;33653;52.302;8.134;2023-01-29T15:51:37;19.83;;;10.13;;
47894;SDS011;33653;52.302;8.134;2023-01-29T15:54:06;18.15;;;10.77;;
47894;SDS011;33653;52.302;8.134;2023-01-29T15:56:51;12.73;;;6.20;;
47894;SDS011;33653;52.302;8.134;2023-01-29T16:02:31;19.03;;;10.00;;
47894;SDS011;33653;52.302;8.134;2023-01-29T16:05:04;20.47;;;10.07;;
47894;SDS011;33653;52.302;8.134;2023-01-29T16:07:49;20.60;;;12.33;;
47894;SDS011;33653;52.302;8.134;2023-01-29T16:10:19;21.80;;;12.47;;
47894;SDS011;33653;52.302;8.134;2023-01-29T16:12:48;14.65;;;10.55;;
47894;SDS011;33653;52.302;8.134;2023-01-29T16:15:20;22.90;;;12.53;;
47894;SDS011;33653;52.302;8.134;2023-01-29T16:18:02;21.50;;;12.10;;
47894;SDS011;33653;52.302;8.134;2023-01-29T16:20:49;24.47;;;14.33;;
47894;SDS011;33653;52.302;8.134;2023-01-29T16:23:23;22.47;;;9.70;;
47894;SDS011;33653;52.302;8.134;2023-01-29T16:26:00;19.83;;;12.95;;
47894;SDS011;33653;52.302;8.134;2023-01-29T16:28:30;24.23;;;11.98;;
47894;SDS011;33653;52.302;8.134;2023-01-29T16:30:58;18.03;;;10.17;;
47894;SDS011;33653;52.302;8.134;2023-01-29T16:33:35;18.83;;;11.70;;
47894;SDS011;33653;52.302;8.134;2023-01-29T16:36:20;27.15;;;9.88;;
47894;SDS011;33653;52.302;8.134;2023-01-29T16:38:52;22.30;;;12.10;;
47894;SDS011;33653;52.302;8.134;2023-01-29T16:41:30;19.57;;;11.23;;
47894;SDS011;33653;52.302;8.134;2023-01-29T16:44:02;22.88;;;12.15;;
47894;SDS011;33653;52.302;8.134;2023-01-29T16:46:46;19.27;;;11.40;;
47894;SDS011;33653;52.302;8.134;2023-01-29T16:52:14;14.60;;;8.77;;
47894;SDS011;33653;52.302;8.134;2023-01-29T16:54:51;19.73;;;11.17;;
47894;SDS011;33653;52.302;8.134;2023-01-29T16:57:26;18.35;;;6.88;;
47894;SDS011;33653;52.302;8.134;2023-01-29T17:00:00;24.60;;;13.53;;
47894;SDS011;33653;52.302;8.134;2023-01-29T17:02:30;18.17;;;9.10;;
47894;SDS011;33653;52.302;8.134;2023-01-29T17:05:50;19.77;;;10.30;;
47894;SDS011;33653;52.302;8.134;2023-01-29T17:07:56;20.00;;;11.53;;
47894;SDS011;33653;52.302;8.134;2023-01-29T17:10:25;17.97;;;11.40;;
47894;SDS011;33653;52.302;8.134;2023-01-29T17:12:56;15.83;;;12.17;;
47894;SDS011;33653;52.302;8.134;2023-01-29T17:15:33;30.00;;;14.53;;
47894;SDS011;33653;52.302;8.134;2023-01-29T17:18:18;21.27;;;9.40;;
47894;SDS011;33653;52.302;8.134;2023-01-29T17:20:53;29.40;;;12.53;;
47894;SDS011;33653;52.302;8.134;2023-01-29T17:23:21;23.83;;;11.32;;
47894;SDS011;33653;52.302;8.134;2023-01-29T17:25:49;25.83;;;14.20;;
47894;SDS011;33653;52.302;8.134;2023-01-29T17:28:17;23.67;;;12.60;;
47894;SDS011;33653;52.302;8.134;2023-01-29T17:30:45;16.97;;;10.57;;
47894;SDS011;33653;52.302;8.134;2023-01-29T17:33:31;20.30;;;12.47;;
47894;SDS011;33653;52.302;8.134;2023-01-29T17:35:59;22.67;;;10.27;;
47894;SDS011;33653;52.302;8.134;2023-01-29T17:38:27;30.70;;;16.10;;
47894;SDS011;33653;52.302;8.134;2023-01-29T17:41:17;20.53;;;11.93;;
47894;SDS011;33653;52.302;8.134;2023-01-29T17:43:54;17.43;;;9.57;;
47894;SDS011;33653;52.302;8.134;2023-01-29T17:46:22;24.87;;;13.80;;
47894;SDS011;33653;52.302;8.134;2023-01-29T17:48:49;22.50;;;12.37;;
47894;SDS011;33653;52.302;8.134;2023-01-29T17:51:18;18.03;;;10.80;;
47894;SDS011;33653;52.302;8.134;2023-01-29T17:53:46;26.23;;;10.77;;
47894;SDS011;33653;52.302;8.134;2023-01-29T17:56:17;21.93;;;12.37;;
47894;SDS011;33653;52.302;8.134;2023-01-29T17:58:53;19.45;;;10.98;;
47894;SDS011;33653;52.302;8.134;2023-01-29T18:01:21;25.60;;;13.32;;
47894;SDS011;33653;52.302;8.134;2023-01-29T18:03:49;24.03;;;11.43;;
47894;SDS011;33653;52.302;8.134;2023-01-29T18:06:19;16.83;;;9.40;;
47894;SDS011;33653;52.302;8.134;2023-01-29T18:08:53;24.37;;;11.23;;
47894;SDS011;33653;52.302;8.134;2023-01-29T18:11:22;20.83;;;11.27;;
47894;SDS011;33653;52.302;8.134;2023-01-29T18:13:50;21.87;;;12.30;;
47894;SDS011;33653;52.302;8.134;2023-01-29T18:16:18;20.63;;;11.70;;
47894;SDS011;33653;52.302;8.134;2023-01-29T18:18:48;18.30;;;11.10;;
47894;SDS011;33653;52.302;8.134;2023-01-29T18:21:17;22.93;;;13.53;;
47894;SDS011;33653;52.302;8.134;2023-01-29T18:23:45;18.70;;;11.13;;
47894;SDS011;33653;52.302;8.134;2023-01-29T18:26:14;22.87;;;12.60;;
47894;SDS011;33653;52.302;8.134;2023-01-29T18:28:42;13.57;;;10.07;;
47894;SDS011;33653;52.302;8.134;2023-01-29T18:31:10;24.87;;;12.73;;
47894;SDS011;33653;52.302;8.134;2023-01-29T18:33:40;19.80;;;11.37;;
47894;SDS011;33653;52.302;8.134;2023-01-29T18:36:08;18.93;;;10.53;;
47894;SDS011;33653;52.302;8.134;2023-01-29T18:38:36;23.30;;;13.17;;